Time;durP1;ratioP1;P1;durP2;ratioP2;P2;SDS_P1;SDS_P2;PMS_P1;PMS_P2;Temp;Humidity;BMP_temperature;BMP_pressure;BME280_temperature;BME280_humidity;BME280_pressure;Samples;Min_cycle;Max_cycle;Signal;HPM_P1;HPM_P2
2023/10/06 00:00:42;;;;;;;3.53;2.03;;;;;;;17.23;72.84;100039.75;5091154;28;20203;-66
2023/10/06 00:03:14;;;;;;;3.27;2.40;;;;;;;17.24;73.19;100054.41;5091645;28;20646;-66
2023/10/06 00:05:41;;;;;;;5.43;2.60;;;;;;;17.19;73.15;100046.84;5088975;28;20237;-66
2023/10/06 00:08:10;;;;;;;4.53;2.20;;;;;;;17.14;73.04;100046.22;5091337;28;20264;-66
2023/10/06 00:10:44;;;;;;;5.87;2.33;;;;;;;17.09;73.05;100039.59;5091000;28;20195;-66
2023/10/06 00:13:12;;;;;;;3.33;2.53;;;;;;;17.07;73.26;100043.97;5091026;28;20226;-66
2023/10/06 00:15:40;;;;;;;3.73;3.43;;;;;;;17.02;73.40;100025.22;5090719;28;20268;-66
2023/10/06 00:18:16;;;;;;;7.00;2.50;;;;;;;17.10;73.56;100038.66;5091212;28;20223;-66
2023/10/06 00:20:48;;;;;;;2.67;1.97;;;;;;;17.12;73.45;100036.84;5090932;28;20647;-66
2023/10/06 00:23:20;;;;;;;2.43;2.23;;;;;;;17.13;73.13;100038.50;5091273;28;20291;-66
2023/10/06 00:25:47;;;;;;;3.20;2.87;;;;;;;17.04;73.53;100006.09;5090992;28;20726;-66
2023/10/06 00:28:19;;;;;;;2.40;2.20;;;;;;;17.16;73.40;100028.00;5090560;28;20196;-67
2023/10/06 00:30:47;;;;;;;2.67;2.37;;;;;;;17.14;73.58;100032.41;5089649;28;20677;-66
2023/10/06 00:33:15;;;;;;;3.80;2.77;;;;;;;17.16;73.98;100038.34;5090781;28;20200;-66
2023/10/06 00:35:44;;;;;;;2.67;2.37;;;;;;;17.15;73.78;100044.47;5090277;28;20219;-65
2023/10/06 00:38:16;;;;;;;4.33;2.67;;;;;;;17.15;73.88;100036.69;5090605;28;20191;-66
2023/10/06 00:40:46;;;;;;;8.40;2.30;;;;;;;17.11;74.51;100040.34;5090952;28;20272;-66
2023/10/06 00:43:16;;;;;;;2.77;2.57;;;;;;;17.09;74.68;100030.03;5091051;28;20196;-66
2023/10/06 00:45:44;;;;;;;6.13;2.33;;;;;;;17.07;74.51;100028.44;5090321;28;20187;-66
2023/10/06 00:48:14;;;;;;;8.33;3.27;;;;;;;17.03;74.54;100026.88;5090929;28;20657;-66
2023/10/06 00:50:42;;;;;;;1.80;1.67;;;;;;;16.89;74.57;100013.75;5090713;28;20199;-66
2023/10/06 00:53:13;;;;;;;3.20;2.23;;;;;;;16.95;74.51;100016.06;5090426;28;20226;-66
2023/10/06 00:55:41;;;;;;;2.07;1.90;;;;;;;16.92;74.54;100014.47;5090614;28;20303;-66
2023/10/06 00:58:11;;;;;;;3.40;2.07;;;;;;;16.85;74.72;100013.06;5090122;28;20195;-66
2023/10/06 01:00:39;;;;;;;3.10;2.40;;;;;;;16.83;74.96;100017.47;5090870;28;21041;-66
2023/10/06 01:03:14;;;;;;;4.03;2.83;;;;;;;16.83;74.67;100014.03;5090488;28;20231;-66
2023/10/06 01:05:45;;;;;;;2.17;2.07;;;;;;;16.75;75.00;100007.47;5090011;28;20195;-66
2023/10/06 01:08:12;;;;;;;3.53;2.10;;;;;;;16.76;74.88;100019.50;5090601;28;20206;-66
2023/10/06 01:10:41;;;;;;;2.43;2.33;;;;;;;16.73;75.29;100024.81;5090556;28;20191;-66
2023/10/06 01:13:14;;;;;;;3.73;2.77;;;;;;;16.70;74.94;100024.13;5090341;28;20199;-66
2023/10/06 01:15:48;;;;;;;6.93;3.53;;;;;;;16.64;75.22;100025.22;5090057;28;20268;-66
2023/10/06 01:18:23;;;;;;;5.17;3.13;;;;;;;16.51;75.16;100018.88;5090348;28;20209;-66
2023/10/06 01:20:50;;;;;;;2.73;2.30;;;;;;;16.50;75.36;100022.38;5089717;28;20309;-66
2023/10/06 01:23:21;;;;;;;7.40;3.23;;;;;;;16.46;75.41;100020.84;5090302;28;20203;-66
2023/10/06 01:25:54;;;;;;;4.27;2.63;;;;;;;16.44;75.46;100022.66;5090438;28;20689;-66
2023/10/06 01:28:23;;;;;;;7.93;3.33;;;;;;;16.39;75.69;100023.75;5089807;28;20258;-66
2023/10/06 01:30:51;;;;;;;4.97;2.43;;;;;;;16.34;76.23;100023.97;5090529;28;20317;-66
2023/10/06 01:33:18;;;;;;;2.27;2.07;;;;;;;16.34;76.28;100025.72;5090233;28;20222;-66
2023/10/06 01:35:46;;;;;;;2.57;2.47;;;;;;;16.23;76.49;100002.88;5090701;28;20930;-66
2023/10/06 01:38:22;;;;;;;3.27;3.00;;;;;;;16.34;76.76;100023.13;5090016;28;20199;-66
2023/10/06 01:40:53;;;;;;;3.37;2.20;;;;;;;16.34;76.78;100018.78;5092033;28;20206;-66
2023/10/06 01:43:23;;;;;;;3.70;2.73;;;;;;;16.35;76.95;100017.06;5094020;28;20199;-66
2023/10/06 01:45:51;;;;;;;3.13;2.77;;;;;;;16.35;77.38;100022.22;5094129;28;20199;-66
2023/10/06 01:48:24;;;;;;;5.80;2.83;;;;;;;16.35;77.26;100023.03;5093608;28;20199;-65
2023/10/06 01:50:55;;;;;;;4.03;2.87;;;;;;;16.33;77.47;100014.53;5093804;28;20199;-66
2023/10/06 01:53:21;;;;;;;9.03;3.33;;;;;;;16.33;77.54;100018.84;5093958;28;20202;-66
2023/10/06 01:55:52;;;;;;;3.20;2.77;;;;;;;16.32;77.66;100017.19;5093871;28;20215;-66
2023/10/06 01:58:19;;;;;;;9.03;3.87;;;;;;;16.31;77.77;100021.53;5093493;28;20694;-66
2023/10/06 02:00:48;;;;;;;8.07;2.93;;;;;;;16.29;77.97;100023.31;5093737;28;20282;-66
2023/10/06 02:03:17;;;;;;;3.93;3.33;;;;;;;16.26;78.15;100024.28;5093527;28;20196;-66
2023/10/06 02:05:44;;;;;;;3.83;3.47;;;;;;;16.23;78.51;100015.81;5093834;28;20195;-66
2023/10/06 02:08:14;;;;;;;3.70;3.40;;;;;;;16.24;78.88;100030.44;5093928;28;20671;-66
2023/10/06 02:10:42;;;;;;;7.50;3.80;;;;;;;16.23;79.14;100031.34;5093579;28;20191;-66
2023/10/06 02:13:11;;;;;;;4.30;3.07;;;;;;;16.21;78.97;100040.94;5092848;28;20200;-66
2023/10/06 02:15:37;;;;;;;3.53;2.87;;;;;;;16.20;79.25;100039.25;5093295;28;20211;-66
2023/10/06 02:18:12;;;;;;;5.67;2.80;;;;;;;16.18;78.96;100035.88;5093774;28;20732;-66
2023/10/06 02:20:41;;;;;;;3.53;2.63;;;;;;;16.15;78.79;100030.84;5093090;28;20230;-67
2023/10/06 02:23:08;;;;;;;5.17;3.40;;;;;;;16.15;78.54;100030.84;5093382;28;20283;-66
2023/10/06 02:25:36;;;;;;;3.00;2.80;;;;;;;16.11;78.46;100031.88;5092887;28;20195;-66
2023/10/06 02:28:05;;;;;;;6.03;2.70;;;;;;;16.08;78.70;100030.28;5093174;28;20199;-66
2023/10/06 02:30:37;;;;;;;2.70;2.57;;;;;;;16.08;78.92;100034.59;5093563;28;20195;-66
2023/10/06 02:33:06;;;;;;;6.03;2.93;;;;;;;16.01;79.28;100039.19;5088831;28;20227;-66
2023/10/06 02:35:34;;;;;;;7.57;2.97;;;;;;;15.90;79.58;100027.59;5090692;28;20306;-66
2023/10/06 02:38:05;;;;;;;8.97;2.80;;;;;;;15.97;79.55;100031.59;5093116;28;20286;-66
2023/10/06 02:40:43;;;;;;;3.23;2.97;;;;;;;15.95;79.65;100028.25;5092999;28;20195;-66
2023/10/06 02:43:13;;;;;;;2.60;2.40;;;;;;;15.91;79.74;100037.88;5093358;28;20715;-66
2023/10/06 02:45:41;;;;;;;4.07;2.47;;;;;;;15.89;79.92;100036.28;5093176;28;20574;-66
2023/10/06 02:48:16;;;;;;;6.53;3.23;;;;;;;15.88;80.27;100037.16;5088943;28;20256;-66
2023/10/06 02:50:45;;;;;;;11.77;2.63;;;;;;;15.86;80.26;100034.66;5090770;28;20195;-66
2023/10/06 02:53:20;;;;;;;2.67;2.47;;;;;;;15.84;80.41;100043.38;5093234;28;20205;-66
2023/10/06 02:55:48;;;;;;;3.17;2.97;;;;;;;15.82;80.93;100034.84;5092728;28;20257;-66
2023/10/06 02:58:24;;;;;;;4.67;2.83;;;;;;;15.80;81.54;100039.25;5092970;28;20203;-66
2023/10/06 03:00:55;;;;;;;2.93;2.70;;;;;;;15.77;81.45;100032.44;5092486;28;20286;-65
2023/10/06 03:03:26;;;;;;;4.47;2.97;;;;;;;15.75;81.90;100027.34;5092391;28;20574;-66
2023/10/06 03:05:55;;;;;;;2.87;2.57;;;;;;;15.74;82.37;100019.63;5092524;28;20194;-65
2023/10/06 03:08:26;;;;;;;4.00;3.40;;;;;;;15.73;82.48;100020.56;5092966;28;20218;-66
2023/10/06 03:10:53;;;;;;;3.77;2.60;;;;;;;15.72;82.80;100027.47;5092511;28;20221;-66
2023/10/06 03:13:24;;;;;;;2.10;2.00;;;;;;;15.68;82.84;100010.41;5092279;28;20202;-66
2023/10/06 03:15:52;;;;;;;3.03;2.83;;;;;;;15.59;83.12;100005.63;5092074;28;20222;-66
2023/10/06 03:18:19;;;;;;;4.57;2.83;;;;;;;15.69;83.87;100022.44;5092406;28;20203;-66
2023/10/06 03:20:49;;;;;;;6.73;2.53;;;;;;;15.68;84.32;100022.47;5092137;28;20234;-66
2023/10/06 03:23:26;;;;;;;4.27;2.80;;;;;;;15.54;84.97;99986.84;5090842;28;20286;-66
2023/10/06 03:25:57;;;;;;;6.43;3.83;;;;;;;15.69;84.71;100021.59;5091666;28;20209;-66
2023/10/06 03:28:31;;;;;;;2.23;2.13;;;;;;;15.58;85.36;100029.78;5091631;28;20703;-66
2023/10/06 03:31:03;;;;;;;4.00;2.60;;;;;;;15.54;85.74;100023.03;5092004;28;20195;-66
2023/10/06 03:33:31;;;;;;;9.50;2.70;;;;;;;15.49;85.76;100019.81;5092238;28;20205;-66
2023/10/06 03:35:58;;;;;;;6.17;2.40;;;;;;;15.47;86.08;100031.09;5091913;28;20707;-66
2023/10/06 03:38:37;;;;;;;2.60;2.50;;;;;;;15.44;86.34;100032.06;5091960;28;20199;-66
2023/10/06 03:43:51;;;;;;;3.90;2.83;;;;;;;15.48;86.05;100018.13;5086388;28;20206;-66
2023/10/06 03:46:20;;;;;;;2.20;2.10;;;;;;;15.48;85.88;100022.44;5091419;28;20206;-66
2023/10/06 03:48:49;;;;;;;4.97;1.70;;;;;;;15.47;85.99;100031.94;5092089;28;20219;-65
2023/10/06 03:51:17;;;;;;;1.90;1.80;;;;;;;15.43;85.83;100025.19;5091497;28;20230;-65
2023/10/06 03:53:47;;;;;;;2.33;1.90;;;;;;;15.39;85.89;100018.47;5091604;28;20199;-66
2023/10/06 03:56:16;;;;;;;2.60;2.40;;;;;;;15.48;85.47;100033.63;5088853;28;20320;-66
2023/10/06 03:58:43;;;;;;;4.17;2.20;;;;;;;15.40;85.27;100011.56;5090825;28;20206;-66
2023/10/06 04:01:11;;;;;;;2.30;2.20;;;;;;;15.44;85.11;100024.31;5091428;28;20196;-66
2023/10/06 04:03:39;;;;;;;2.20;2.00;;;;;;;15.37;85.32;100035.78;5090862;28;20199;-66
2023/10/06 04:06:12;;;;;;;2.93;2.77;;;;;;;15.35;85.57;100031.56;5091811;28;20686;-66
2023/10/06 04:08:40;;;;;;;2.30;2.10;;;;;;;15.23;85.50;100012.22;5091266;28;20208;-66
2023/10/06 04:11:07;;;;;;;2.57;2.37;;;;;;;15.30;85.56;100034.31;5091399;28;20191;-66
2023/10/06 04:13:38;;;;;;;3.03;2.33;;;;;;;15.28;85.67;100043.06;5091020;28;20260;-66
2023/10/06 04:16:05;;;;;;;3.53;2.50;;;;;;;15.20;86.55;100045.91;5091160;28;20704;-66
2023/10/06 04:18:32;;;;;;;5.03;2.20;;;;;;;14.97;87.19;100033.03;5091088;28;20202;-65
2023/10/06 04:21:03;;;;;;;3.83;2.27;;;;;;;14.96;87.99;100046.88;5091210;28;20255;-66
2023/10/06 04:23:29;;;;;;;2.07;1.97;;;;;;;14.93;88.31;100044.38;5088522;28;20199;-65
2023/10/06 04:25:56;;;;;;;3.40;2.47;;;;;;;14.95;88.73;100047.75;5090861;28;20205;-66
2023/10/06 04:28:25;;;;;;;3.97;2.70;;;;;;;14.98;88.19;100047.63;5090158;28;20202;-66
2023/10/06 04:30:53;;;;;;;4.90;3.50;;;;;;;14.97;88.49;100051.97;5089595;28;20217;-65
2023/10/06 04:33:20;;;;;;;5.50;2.87;;;;;;;14.97;88.42;100057.13;5090957;28;20690;-66
2023/10/06 04:35:55;;;;;;;3.40;2.93;;;;;;;15.00;88.26;100053.56;5090201;28;20218;-66
2023/10/06 04:38:25;;;;;;;4.80;2.73;;;;;;;15.01;88.29;100070.75;5090965;28;20760;-65
2023/10/06 04:40:52;;;;;;;10.57;2.60;;;;;;;14.98;88.57;100068.28;5090352;28;20239;-66
2023/10/06 04:43:19;;;;;;;1.90;1.90;;;;;;;14.87;89.28;100062.69;5090566;28;20196;-66
2023/10/06 04:45:47;;;;;;;2.20;2.10;;;;;;;14.85;89.57;100072.22;5090579;28;20193;-66
2023/10/06 04:48:15;;;;;;;2.77;2.60;;;;;;;14.84;89.68;100067.97;5090611;28;20582;-66
2023/10/06 04:50:42;;;;;;;3.13;2.90;;;;;;;14.86;89.86;100069.59;5089939;28;20217;-66
2023/10/06 04:53:11;;;;;;;5.57;3.10;;;;;;;14.90;89.53;100066.00;5090305;28;20192;-66
2023/10/06 04:55:39;;;;;;;2.17;2.07;;;;;;;14.96;89.32;100075.28;5090686;28;20760;-66
2023/10/06 04:58:08;;;;;;;2.93;2.60;;;;;;;14.76;89.38;100037.28;5090557;28;20279;-66
2023/10/06 05:00:35;;;;;;;2.67;2.47;;;;;;;15.04;89.32;100083.56;5088808;28;20204;-66
2023/10/06 05:03:04;;;;;;;4.17;2.40;;;;;;;15.09;89.59;100086.78;5085641;28;20218;-65
2023/10/06 05:05:33;;;;;;;6.57;2.47;;;;;;;15.11;90.21;100082.44;5088732;28;20208;-66
2023/10/06 05:08:02;;;;;;;2.50;2.10;;;;;;;14.93;91.77;100059.88;5089315;28;20586;-65
2023/10/06 05:10:30;;;;;;;2.73;2.53;;;;;;;15.01;93.02;100091.41;5085696;28;20196;-66
2023/10/06 05:12:59;;;;;;;3.83;2.50;;;;;;;14.99;93.50;100083.72;5084773;28;20210;-66
2023/10/06 05:15:26;;;;;;;3.73;3.53;;;;;;;14.90;94.09;100075.47;5083794;28;20218;-66
2023/10/06 05:17:56;;;;;;;2.73;2.60;;;;;;;15.03;94.05;100089.59;5093134;28;20249;-66
2023/10/06 05:20:27;;;;;;;3.13;2.23;;;;;;;15.00;94.45;100087.13;5092301;28;20226;-66
2023/10/06 05:22:54;;;;;;;2.50;2.40;;;;;;;14.98;95.13;100094.13;5089442;28;20203;-66
2023/10/06 05:25:22;;;;;;;3.17;2.47;;;;;;;14.99;95.65;100098.41;5094655;28;20621;-66
2023/10/06 05:27:50;;;;;;;2.40;2.30;;;;;;;14.98;96.31;100089.78;5094075;28;20212;-66
2023/10/06 05:30:18;;;;;;;11.70;3.27;;;;;;;14.97;96.80;100088.09;5093570;28;20206;-66
2023/10/06 05:32:45;;;;;;;3.10;1.77;;;;;;;14.99;97.34;100093.22;5092810;28;20202;-66
2023/10/06 05:35:13;;;;;;;2.20;1.90;;;;;;;15.05;97.36;100095.56;5092513;28;20672;-66
2023/10/06 05:37:42;;;;;;;3.13;2.50;;;;;;;15.10;97.78;100099.66;5092108;28;20228;-66
2023/10/06 05:40:12;;;;;;;2.53;2.33;;;;;;;15.21;97.57;100096.69;5092945;28;20242;-66
2023/10/06 05:42:40;;;;;;;7.87;2.23;;;;;;;15.30;96.91;100098.91;5093762;28;20206;-66
2023/10/06 05:45:15;;;;;;;3.93;2.53;;;;;;;15.40;96.49;100102.84;5093879;28;20292;-66
2023/10/06 05:47:45;;;;;;;8.43;2.30;;;;;;;15.49;96.43;100097.34;5093706;28;20294;-66
2023/10/06 05:50:12;;;;;;;2.60;2.00;;;;;;;15.61;96.20;100102.00;5089104;28;20286;-66
2023/10/06 05:52:40;;;;;;;2.57;2.47;;;;;;;15.67;96.04;100106.94;5094014;28;20675;-66
2023/10/06 05:55:09;;;;;;;2.73;2.50;;;;;;;15.77;95.38;100109.19;5093097;28;20206;-66
2023/10/06 05:57:43;;;;;;;2.10;2.00;;;;;;;15.82;95.61;100104.66;5093160;28;20298;-67
2023/10/06 06:00:18;;;;;;;2.80;2.33;;;;;;;15.91;94.95;100110.28;5093647;28;20293;-66
2023/10/06 06:02:47;;;;;;;4.50;2.60;;;;;;;16.00;94.87;100103.88;5091594;28;20195;-66
2023/10/06 06:05:16;;;;;;;2.93;2.73;;;;;;;16.09;94.62;100099.19;5090716;28;20199;-66
2023/10/06 06:07:43;;;;;;;7.90;3.03;;;;;;;16.19;94.32;100099.63;5090823;28;20268;-66
2023/10/06 06:10:13;;;;;;;3.63;2.97;;;;;;;16.28;94.33;100112.22;5092316;28;20203;-66
2023/10/06 06:12:40;;;;;;;2.97;2.70;;;;;;;16.38;93.23;100110.06;5092232;28;20236;-66
2023/10/06 06:15:09;;;;;;;2.07;1.97;;;;;;;16.51;93.17;100116.41;5092210;28;20376;-67
2023/10/06 06:17:36;;;;;;;2.23;1.93;;;;;;;16.60;93.35;100111.72;5093096;28;20199;-67
2023/10/06 06:20:07;;;;;;;3.73;3.23;;;;;;;16.67;91.99;100112.28;5093574;28;20702;-67
2023/10/06 06:22:36;;;;;;;3.33;2.40;;;;;;;16.82;90.62;100115.94;5093519;28;20195;-71
2023/10/06 06:25:06;;;;;;;3.50;2.63;;;;;;;16.93;89.54;100124.91;5091223;28;20202;-67
2023/10/06 06:27:32;;;;;;;4.67;2.33;;;;;;;17.03;89.48;100122.72;5090687;28;20234;-67
2023/10/06 06:29:59;;;;;;;5.63;2.50;;;;;;;17.16;89.37;100126.47;5091124;28;20239;-67
2023/10/06 06:32:26;;;;;;;5.80;2.10;;;;;;;17.26;88.61;100122.53;5091948;28;20714;-67
2023/10/06 06:34:53;;;;;;;3.07;2.90;;;;;;;17.33;87.82;100129.13;5091741;28;20203;-66
2023/10/06 06:37:23;;;;;;;6.60;3.20;;;;;;;17.44;86.71;100131.22;5092219;28;20242;-67
2023/10/06 06:39:50;;;;;;;6.10;2.70;;;;;;;17.50;86.77;100131.78;5090347;28;20322;-67
2023/10/06 06:42:16;;;;;;;3.43;3.23;;;;;;;17.62;86.49;100126.03;5092443;28;20204;-67
2023/10/06 06:44:47;;;;;;;4.67;2.53;;;;;;;17.72;85.92;100132.47;5093068;28;20207;-67
2023/10/06 06:47:16;;;;;;;6.93;3.53;;;;;;;17.79;84.81;100131.28;5093127;28;20244;-67
2023/10/06 06:49:44;;;;;;;3.10;2.90;;;;;;;17.88;84.79;100134.31;5092791;28;20199;-67
2023/10/06 06:52:12;;;;;;;3.40;3.27;;;;;;;17.93;84.10;100129.78;5092650;28;20219;-67
2023/10/06 06:54:46;;;;;;;4.47;3.40;;;;;;;18.00;83.50;100141.50;5092808;28;20667;-67
2023/10/06 06:57:16;;;;;;;2.67;2.47;;;;;;;18.06;84.15;100136.03;5092233;28;20224;-66
2023/10/06 06:59:44;;;;;;;4.20;2.90;;;;;;;18.13;84.91;100127.03;5092335;28;20199;-65
2023/10/06 07:02:11;;;;;;;3.90;3.50;;;;;;;18.23;84.07;100128.25;5092715;28;20282;-66
2023/10/06 07:04:38;;;;;;;2.73;2.53;;;;;;;18.32;83.26;100122.59;5091468;28;20746;-70
2023/10/06 07:07:05;;;;;;;8.70;2.87;;;;;;;18.43;85.28;100120.31;5092392;28;20707;-67
2023/10/06 07:09:31;;;;;;;9.13;3.03;;;;;;;18.50;83.64;100111.31;5090999;28;20199;-68
2023/10/06 07:11:59;;;;;;;5.03;2.73;;;;;;;18.56;83.77;100116.19;5091626;28;20213;-67
2023/10/06 07:14:27;;;;;;;3.47;3.17;;;;;;;18.69;83.92;100121.59;5090163;28;20208;-67
2023/10/06 07:16:56;;;;;;;7.37;2.93;;;;;;;18.80;82.92;100121.88;5089538;28;20222;-67
2023/10/06 07:19:24;;;;;;;3.40;3.03;;;;;;;18.85;82.90;100120.72;5091044;28;20229;-67
2023/10/06 07:21:51;;;;;;;4.40;3.63;;;;;;;19.00;82.70;100120.84;5091163;28;20203;-67
2023/10/06 07:24:18;;;;;;;6.13;3.57;;;;;;;19.07;81.94;100124.75;5090787;28;20681;-68
2023/10/06 07:26:45;;;;;;;4.10;2.77;;;;;;;19.19;80.55;100126.72;5089156;28;20685;-67
2023/10/06 07:29:14;;;;;;;3.37;3.10;;;;;;;19.28;80.58;100118.44;5088988;28;20198;-66
2023/10/06 07:31:41;;;;;;;5.10;3.17;;;;;;;19.46;80.37;100120.03;5089668;28;20214;-65
2023/10/06 07:34:08;;;;;;;6.73;3.47;;;;;;;19.66;82.77;100119.78;5090697;28;20655;-66
2023/10/06 07:36:35;;;;;;;5.47;3.07;;;;;;;19.82;80.72;100117.16;5090436;28;20232;-66
2023/10/06 07:39:04;;;;;;;2.37;2.27;;;;;;;20.02;78.58;100118.63;5090320;28;20205;-66
2023/10/06 07:41:32;;;;;;;3.30;2.23;;;;;;;20.18;76.82;100120.25;5086793;28;20199;-66
2023/10/06 07:43:59;;;;;;;3.03;2.83;;;;;;;20.29;74.27;100101.44;5090478;28;20206;-66
2023/10/06 07:46:29;;;;;;;5.10;2.97;;;;;;;20.40;75.52;100112.06;5090133;28;20617;-66
2023/10/06 07:48:57;;;;;;;12.03;2.83;;;;;;;20.45;76.58;100117.00;5090390;28;20203;-66
2023/10/06 07:51:26;;;;;;;2.67;2.47;;;;;;;20.55;73.76;100112.91;5090485;28;20259;-66
2023/10/06 07:53:52;;;;;;;2.13;2.03;;;;;;;20.61;71.99;100110.78;5089797;28;20294;-66
2023/10/06 07:56:19;;;;;;;3.60;2.37;;;;;;;20.62;71.45;100115.06;5089457;28;20284;-66
2023/10/06 07:58:46;;;;;;;4.77;2.43;;;;;;;20.65;70.51;100104.44;5090026;28;20202;-65
2023/10/06 08:01:13;;;;;;;4.80;2.00;;;;;;;20.67;72.51;100109.56;5090996;28;20656;-66
2023/10/06 08:03:42;;;;;;;6.27;2.07;;;;;;;20.70;70.84;100106.78;5091255;28;20234;-66
2023/10/06 08:06:10;;;;;;;4.33;2.37;;;;;;;20.77;72.12;100102.88;5090744;28;20596;-66
2023/10/06 08:08:38;;;;;;;3.40;2.60;;;;;;;20.94;70.84;100110.47;5091651;28;20310;-66
2023/10/06 08:11:06;;;;;;;3.20;2.63;;;;;;;21.10;69.31;100105.22;5084573;28;20672;-66
2023/10/06 08:13:33;;;;;;;6.77;2.43;;;;;;;21.18;68.68;100108.16;5090851;28;20252;-66
2023/10/06 08:16:00;;;;;;;3.90;2.17;;;;;;;21.23;68.88;100104.34;5090816;28;20216;-65
2023/10/06 08:18:29;;;;;;;2.13;1.93;;;;;;;21.21;68.67;100093.16;5090838;28;20212;-65
2023/10/06 08:21:00;;;;;;;2.13;2.03;;;;;;;21.30;68.17;100102.19;5090294;28;20224;-68
2023/10/06 08:23:27;;;;;;;2.67;2.47;;;;;;;21.31;68.95;100104.72;5089852;28;20202;-68
2023/10/06 08:25:56;;;;;;;3.53;2.33;;;;;;;21.39;67.36;100106.81;5089237;28;20203;-69
2023/10/06 08:28:24;;;;;;;3.30;1.97;;;;;;;21.43;67.38;100100.47;5090231;28;20202;-68
2023/10/06 08:30:51;;;;;;;3.13;2.03;;;;;;;21.51;66.92;100106.06;5089319;28;20195;-68
2023/10/06 08:33:18;;;;;;;2.47;2.37;;;;;;;21.65;68.98;100108.59;5089805;28;20241;-66
2023/10/06 08:35:45;;;;;;;2.63;2.30;;;;;;;21.73;67.20;100101.13;5089831;28;20706;-68
2023/10/06 08:38:14;;;;;;;3.07;2.37;;;;;;;21.81;66.98;100104.06;5089339;28;20219;-69
2023/10/06 08:40:43;;;;;;;2.10;2.00;;;;;;;21.87;65.99;100103.66;5089822;28;20695;-68
2023/10/06 08:43:10;;;;;;;2.37;2.23;;;;;;;21.93;64.92;100102.47;5089393;28;20203;-69
2023/10/06 08:45:43;;;;;;;4.03;2.33;;;;;;;21.97;66.28;100103.94;5090197;28;20241;-70
2023/10/06 08:48:10;;;;;;;2.00;1.87;;;;;;;22.03;65.91;100092.25;5089482;28;20201;-70
2023/10/06 08:50:38;;;;;;;2.00;1.80;;;;;;;22.12;67.20;100094.25;5088698;28;20199;-69
2023/10/06 08:53:09;;;;;;;2.57;2.37;;;;;;;22.27;68.13;100090.59;5082820;28;20199;-69
2023/10/06 08:55:38;;;;;;;2.23;1.67;;;;;;;22.43;67.11;100086.84;5087724;28;20200;-69
2023/10/06 08:58:07;;;;;;;7.03;2.00;;;;;;;22.65;65.82;100096.66;5082837;28;20309;-69
2023/10/06 09:00:36;;;;;;;3.70;2.33;;;;;;;22.91;63.79;100087.03;5089355;28;20207;-69
2023/10/06 09:03:07;;;;;;;3.53;2.17;;;;;;;23.09;62.02;100084.94;5087662;28;20226;-69
2023/10/06 09:05:36;;;;;;;2.63;2.43;;;;;;;23.29;64.50;100086.97;5086905;28;20199;-69
2023/10/06 09:08:05;;;;;;;3.77;2.10;;;;;;;23.43;63.17;100078.97;5088213;28;20265;-69
2023/10/06 09:10:33;;;;;;;5.60;2.53;;;;;;;23.61;61.26;100087.28;5084174;28;20207;-69
2023/10/06 09:13:04;;;;;;;3.10;2.23;;;;;;;23.64;61.75;100056.50;5089336;28;20214;-69
2023/10/06 09:15:31;;;;;;;2.50;2.23;;;;;;;23.97;61.11;100080.16;5088463;28;20207;-69
2023/10/06 09:17:59;;;;;;;3.07;1.93;;;;;;;24.11;59.33;100070.44;5082853;28;20292;-69
2023/10/06 09:20:31;;;;;;;2.00;1.90;;;;;;;24.29;59.50;100074.31;5088872;28;20237;-69
2023/10/06 09:22:59;;;;;;;1.67;1.57;;;;;;;24.42;58.77;100075.91;5083432;28;20211;-69
2023/10/06 09:25:27;;;;;;;2.00;1.80;;;;;;;24.60;56.55;100073.63;5089814;28;20208;-69
2023/10/06 09:28:08;;;;;;;1.50;1.40;;;;;;;24.67;54.81;100069.59;5084447;28;20200;-69
2023/10/06 09:30:50;;;;;;;4.17;2.10;;;;;;;24.75;55.75;100069.81;5087902;28;20603;-69
2023/10/06 09:33:17;;;;;;;2.73;2.33;;;;;;;24.85;53.98;100073.41;5088467;28;20218;-69
2023/10/06 09:35:44;;;;;;;2.70;2.50;;;;;;;24.90;57.04;100071.28;5089679;28;20617;-70
2023/10/06 09:38:13;;;;;;;2.70;1.67;;;;;;;25.02;55.27;100054.56;5087256;28;20222;-69
2023/10/06 09:40:44;;;;;;;2.03;1.93;;;;;;;25.18;54.61;100058.59;5086272;28;20969;-70
2023/10/06 09:43:16;;;;;;;2.27;1.57;;;;;;;25.23;52.50;100051.19;5088499;28;20207;-70
2023/10/06 09:45:43;;;;;;;3.17;2.20;;;;;;;25.32;53.56;100055.69;5087584;28;20211;-70
2023/10/06 09:48:17;;;;;;;2.50;1.97;;;;;;;25.36;53.05;100054.50;5086210;28;20200;-70
2023/10/06 09:50:46;;;;;;;2.07;1.97;;;;;;;25.38;53.02;100055.19;5086544;28;20292;-69
2023/10/06 09:53:13;;;;;;;2.30;2.10;;;;;;;25.41;51.87;100047.91;5087307;28;20215;-69
2023/10/06 09:55:41;;;;;;;1.93;1.73;;;;;;;25.41;52.37;100040.03;5086442;28;20203;-70
2023/10/06 09:58:08;;;;;;;1.97;1.83;;;;;;;25.47;52.57;100038.69;5086176;28;20948;-70
2023/10/06 10:00:40;;;;;;;2.30;2.20;;;;;;;25.51;53.89;100037.53;5087866;28;20252;-69
2023/10/06 10:03:09;;;;;;;9.27;2.07;;;;;;;25.53;53.88;100038.22;5090228;28;20690;-70
2023/10/06 10:05:38;;;;;;;2.60;2.40;;;;;;;25.62;51.68;100028.78;5091109;28;20238;-69
2023/10/06 10:08:06;;;;;;;2.20;2.10;;;;;;;25.63;52.64;100027.78;5085743;28;20286;-70
2023/10/06 10:10:34;;;;;;;2.10;2.00;;;;;;;25.70;53.32;100019.31;5090005;28;20205;-69
2023/10/06 10:13:55;;;;;;;3.17;2.03;;;;;;;25.75;52.53;100018.94;5090255;28;20639;-70
2023/10/06 10:16:52;;;;;;;4.37;2.10;;;;;;;25.80;52.05;100012.31;5042072;28;20209;-70
2023/10/06 10:19:23;;;;;;;3.23;2.97;;;;;;;25.84;53.96;100005.88;5049294;28;20228;-68
2023/10/06 10:21:51;;;;;;;2.23;2.13;;;;;;;25.93;51.46;100012.13;5079562;28;20245;-70
2023/10/06 10:24:21;;;;;;;3.07;2.77;;;;;;;25.96;51.25;99994.31;5092178;28;20200;-69
2023/10/06 10:26:50;;;;;;;2.57;2.10;;;;;;;25.94;50.56;99985.75;5090235;28;21080;-69
2023/10/06 10:29:30;;;;;;;1.97;1.87;;;;;;;26.05;49.61;99993.53;5092741;28;20191;-69
2023/10/06 10:32:07;;;;;;;2.27;2.17;;;;;;;26.08;49.92;99987.19;5092495;28;20716;-69
2023/10/06 10:34:34;;;;;;;4.80;2.20;;;;;;;26.20;49.23;99990.59;5092219;28;20210;-69
2023/10/06 10:37:17;;;;;;;1.80;1.67;;;;;;;26.18;49.37;99982.00;5091184;28;20215;-69
2023/10/06 10:39:49;;;;;;;2.00;1.90;;;;;;;26.21;49.30;99972.06;5087431;28;20207;-68
2023/10/06 10:42:18;;;;;;;2.90;2.67;;;;;;;26.26;50.79;99969.03;5086777;28;20202;-69
2023/10/06 10:44:47;;;;;;;3.20;2.93;;;;;;;26.29;49.30;99968.78;5089830;28;20226;-68
2023/10/06 10:47:16;;;;;;;2.83;2.50;;;;;;;26.27;49.24;99965.47;5085595;28;20231;-69
2023/10/06 10:49:44;;;;;;;2.97;2.77;;;;;;;26.25;50.07;99960.31;5089033;28;20294;-69
2023/10/06 10:52:11;;;;;;;2.90;2.70;;;;;;;26.27;50.72;99960.22;5091879;28;20206;-70
2023/10/06 10:54:40;;;;;;;2.50;2.30;;;;;;;26.35;49.86;99952.47;5088768;28;20195;-69
2023/10/06 10:57:09;;;;;;;2.43;2.23;;;;;;;26.34;50.10;99945.53;5090925;28;20310;-69
2023/10/06 11:00:13;;;;;;;2.10;2.00;;;;;;;26.39;52.30;99948.63;5090759;28;20192;-69
2023/10/06 11:02:45;;;;;;;4.67;2.30;;;;;;;26.47;50.54;99940.88;5088691;28;20275;-69
2023/10/06 11:05:12;;;;;;;4.90;2.97;;;;;;;26.42;48.38;99937.84;5089031;28;20195;-69
2023/10/06 11:07:39;;;;;;;2.50;2.30;;;;;;;26.47;50.60;99925.94;5088891;28;20203;-69
2023/10/06 11:10:08;;;;;;;2.10;2.00;;;;;;;26.52;49.43;99928.19;5089530;28;20231;-69
2023/10/06 11:12:35;;;;;;;2.93;2.73;;;;;;;26.60;49.19;99920.44;5090265;28;20199;-70
2023/10/06 11:15:13;;;;;;;4.33;2.40;;;;;;;26.68;50.46;99912.72;5091810;28;20612;-69
2023/10/06 11:17:43;;;;;;;2.20;2.10;;;;;;;26.77;49.85;99917.16;5089946;28;20251;-69
2023/10/06 11:20:15;;;;;;;3.90;2.20;;;;;;;26.79;49.83;99915.19;5090679;28;20222;-68
2023/10/06 11:22:55;;;;;;;1.97;1.80;;;;;;;26.84;49.00;99912.22;5088609;28;20199;-69
2023/10/06 11:25:27;;;;;;;2.90;2.70;;;;;;;26.79;47.64;99912.56;5091204;28;20214;-68
2023/10/06 11:27:58;;;;;;;2.63;2.43;;;;;;;26.78;47.80;99902.19;5091682;28;20203;-69
2023/10/06 11:30:29;;;;;;;2.67;2.43;;;;;;;26.80;49.14;99906.34;5091657;28;20293;-69
2023/10/06 11:32:58;;;;;;;2.57;2.37;;;;;;;26.78;46.95;99903.03;5091451;28;20203;-67
2023/10/06 11:35:25;;;;;;;3.00;2.37;;;;;;;26.78;48.65;99904.84;5089009;28;20304;-67
2023/10/06 11:37:52;;;;;;;2.67;2.47;;;;;;;26.81;48.03;99904.59;5092336;28;20273;-67
2023/10/06 11:40:21;;;;;;;2.17;2.07;;;;;;;26.79;47.80;99894.16;5091358;28;20732;-67